sensor_id;sensor_type;location;lat;lon;timestamp;P1;durP1;ratioP1;P2;durP2;ratioP2
3733;SDS011;1882;52.256;8.874;2023-04-19T00:01:29;11.97;;;6.60;;
3733;SDS011;1882;52.256;8.874;2023-04-19T00:03:56;11.70;;;7.67;;
3733;SDS011;1882;52.256;8.874;2023-04-19T00:06:24;10.50;;;6.40;;
3733;SDS011;1882;52.256;8.874;2023-04-19T00:08:51;12.57;;;7.80;;
3733;SDS011;1882;52.256;8.874;2023-04-19T00:11:18;10.80;;;6.77;;
3733;SDS011;1882;52.256;8.874;2023-04-19T00:13:45;10.63;;;7.23;;
3733;SDS011;1882;52.256;8.874;2023-04-19T00:16:15;11.77;;;7.10;;
3733;SDS011;1882;52.256;8.874;2023-04-19T00:18:41;10.77;;;7.10;;
3733;SDS011;1882;52.256;8.874;2023-04-19T00:21:08;9.87;;;6.97;;
3733;SDS011;1882;52.256;8.874;2023-04-19T00:23:35;8.57;;;6.90;;
3733;SDS011;1882;52.256;8.874;2023-04-19T00:26:02;13.07;;;7.37;;
3733;SDS011;1882;52.256;8.874;2023-04-19T00:28:29;11.23;;;7.13;;
3733;SDS011;1882;52.256;8.874;2023-04-19T00:30:56;10.67;;;7.53;;
3733;SDS011;1882;52.256;8.874;2023-04-19T00:33:23;11.60;;;7.37;;
3733;SDS011;1882;52.256;8.874;2023-04-19T00:35:50;9.77;;;7.20;;
3733;SDS011;1882;52.256;8.874;2023-04-19T00:38:18;13.63;;;7.43;;
3733;SDS011;1882;52.256;8.874;2023-04-19T00:40:44;13.17;;;6.67;;
3733;SDS011;1882;52.256;8.874;2023-04-19T00:43:15;11.30;;;7.63;;
3733;SDS011;1882;52.256;8.874;2023-04-19T00:45:44;10.20;;;7.10;;
3733;SDS011;1882;52.256;8.874;2023-04-19T00:48:15;11.90;;;7.50;;
3733;SDS011;1882;52.256;8.874;2023-04-19T00:50:44;10.77;;;7.30;;
3733;SDS011;1882;52.256;8.874;2023-04-19T00:53:11;9.90;;;6.80;;
3733;SDS011;1882;52.256;8.874;2023-04-19T00:55:39;16.13;;;7.57;;
3733;SDS011;1882;52.256;8.874;2023-04-19T00:58:10;10.17;;;7.17;;
3733;SDS011;1882;52.256;8.874;2023-04-19T01:00:40;10.23;;;6.70;;
3733;SDS011;1882;52.256;8.874;2023-04-19T01:03:07;15.07;;;7.03;;
3733;SDS011;1882;52.256;8.874;2023-04-19T01:05:39;13.77;;;7.67;;
3733;SDS011;1882;52.256;8.874;2023-04-19T01:08:13;11.70;;;7.33;;
3733;SDS011;1882;52.256;8.874;2023-04-19T01:10:40;12.87;;;7.13;;
3733;SDS011;1882;52.256;8.874;2023-04-19T01:13:07;11.40;;;6.70;;
3733;SDS011;1882;52.256;8.874;2023-04-19T01:15:36;10.03;;;6.73;;
3733;SDS011;1882;52.256;8.874;2023-04-19T01:18:03;10.10;;;6.10;;
3733;SDS011;1882;52.256;8.874;2023-04-19T01:20:30;11.87;;;6.47;;
3733;SDS011;1882;52.256;8.874;2023-04-19T01:25:57;11.90;;;6.77;;
3733;SDS011;1882;52.256;8.874;2023-04-19T01:28:27;8.80;;;6.27;;
3733;SDS011;1882;52.256;8.874;2023-04-19T01:30:53;8.30;;;5.33;;
3733;SDS011;1882;52.256;8.874;2023-04-19T01:33:26;8.37;;;5.90;;
3733;SDS011;1882;52.256;8.874;2023-04-19T01:35:53;6.63;;;4.60;;
3733;SDS011;1882;52.256;8.874;2023-04-19T01:38:20;6.80;;;5.10;;
3733;SDS011;1882;52.256;8.874;2023-04-19T01:40:54;5.90;;;4.77;;
3733;SDS011;1882;52.256;8.874;2023-04-19T01:43:23;7.13;;;5.20;;
3733;SDS011;1882;52.256;8.874;2023-04-19T01:45:53;7.03;;;4.90;;
3733;SDS011;1882;52.256;8.874;2023-04-19T01:48:20;6.97;;;4.30;;
3733;SDS011;1882;52.256;8.874;2023-04-19T01:50:53;10.20;;;4.77;;
3733;SDS011;1882;52.256;8.874;2023-04-19T01:53:20;10.23;;;5.40;;
3733;SDS011;1882;52.256;8.874;2023-04-19T01:55:49;8.50;;;5.07;;
3733;SDS011;1882;52.256;8.874;2023-04-19T01:58:21;10.70;;;5.13;;
3733;SDS011;1882;52.256;8.874;2023-04-19T02:00:55;13.70;;;4.73;;
3733;SDS011;1882;52.256;8.874;2023-04-19T02:03:22;7.03;;;4.30;;
3733;SDS011;1882;52.256;8.874;2023-04-19T02:05:55;7.20;;;4.70;;
3733;SDS011;1882;52.256;8.874;2023-04-19T02:08:22;8.97;;;4.60;;
3733;SDS011;1882;52.256;8.874;2023-04-19T02:10:52;7.90;;;4.40;;
3733;SDS011;1882;52.256;8.874;2023-04-19T02:13:27;5.93;;;4.27;;
3733;SDS011;1882;52.256;8.874;2023-04-19T02:15:54;6.43;;;4.13;;
3733;SDS011;1882;52.256;8.874;2023-04-19T02:18:21;5.13;;;3.73;;
3733;SDS011;1882;52.256;8.874;2023-04-19T02:20:59;7.03;;;3.70;;
3733;SDS011;1882;52.256;8.874;2023-04-19T02:23:25;5.40;;;3.50;;
3733;SDS011;1882;52.256;8.874;2023-04-19T02:25:52;7.60;;;3.67;;
3733;SDS011;1882;52.256;8.874;2023-04-19T02:28:23;5.20;;;3.90;;
3733;SDS011;1882;52.256;8.874;2023-04-19T02:30:53;5.53;;;3.73;;
3733;SDS011;1882;52.256;8.874;2023-04-19T02:33:26;4.77;;;3.63;;
3733;SDS011;1882;52.256;8.874;2023-04-19T02:35:57;6.40;;;3.93;;
3733;SDS011;1882;52.256;8.874;2023-04-19T02:38:25;7.50;;;3.63;;
3733;SDS011;1882;52.256;8.874;2023-04-19T02:40:52;6.90;;;3.43;;
3733;SDS011;1882;52.256;8.874;2023-04-19T02:46:12;13.37;;;4.43;;
3733;SDS011;1882;52.256;8.874;2023-04-19T02:48:39;12.47;;;4.17;;
3733;SDS011;1882;52.256;8.874;2023-04-19T02:51:06;6.20;;;3.90;;
3733;SDS011;1882;52.256;8.874;2023-04-19T02:53:35;4.80;;;3.87;;
3733;SDS011;1882;52.256;8.874;2023-04-19T02:56:08;8.10;;;3.50;;
3733;SDS011;1882;52.256;8.874;2023-04-19T02:58:35;4.30;;;3.20;;
3733;SDS011;1882;52.256;8.874;2023-04-19T03:01:04;4.80;;;3.60;;
3733;SDS011;1882;52.256;8.874;2023-04-19T03:03:30;7.57;;;4.17;;
3733;SDS011;1882;52.256;8.874;2023-04-19T03:06:03;5.27;;;3.57;;
3733;SDS011;1882;52.256;8.874;2023-04-19T03:08:31;5.77;;;4.17;;
3733;SDS011;1882;52.256;8.874;2023-04-19T03:10:58;9.40;;;4.10;;
3733;SDS011;1882;52.256;8.874;2023-04-19T03:13:34;8.20;;;3.70;;
3733;SDS011;1882;52.256;8.874;2023-04-19T03:16:01;5.93;;;3.70;;
3733;SDS011;1882;52.256;8.874;2023-04-19T03:18:30;7.60;;;3.80;;
3733;SDS011;1882;52.256;8.874;2023-04-19T03:21:00;6.57;;;3.90;;
3733;SDS011;1882;52.256;8.874;2023-04-19T03:23:39;5.30;;;3.70;;
3733;SDS011;1882;52.256;8.874;2023-04-19T03:26:13;5.23;;;3.50;;
3733;SDS011;1882;52.256;8.874;2023-04-19T03:28:43;4.90;;;3.60;;
3733;SDS011;1882;52.256;8.874;2023-04-19T03:31:21;6.00;;;3.80;;
3733;SDS011;1882;52.256;8.874;2023-04-19T03:33:50;5.93;;;3.63;;
3733;SDS011;1882;52.256;8.874;2023-04-19T03:36:20;7.67;;;3.87;;
3733;SDS011;1882;52.256;8.874;2023-04-19T03:38:47;5.37;;;3.90;;
3733;SDS011;1882;52.256;8.874;2023-04-19T03:41:22;8.20;;;3.80;;
3733;SDS011;1882;52.256;8.874;2023-04-19T03:44:19;5.33;;;4.00;;
3733;SDS011;1882;52.256;8.874;2023-04-19T03:46:46;6.57;;;3.70;;
3733;SDS011;1882;52.256;8.874;2023-04-19T03:49:17;7.20;;;3.70;;
3733;SDS011;1882;52.256;8.874;2023-04-19T03:51:49;6.37;;;4.07;;
3733;SDS011;1882;52.256;8.874;2023-04-19T03:54:16;8.47;;;4.40;;
3733;SDS011;1882;52.256;8.874;2023-04-19T03:56:43;7.70;;;4.00;;
3733;SDS011;1882;52.256;8.874;2023-04-19T03:59:11;7.67;;;4.70;;
3733;SDS011;1882;52.256;8.874;2023-04-19T04:01:47;7.30;;;4.50;;
3733;SDS011;1882;52.256;8.874;2023-04-19T04:04:14;8.93;;;4.27;;
3733;SDS011;1882;52.256;8.874;2023-04-19T04:06:52;7.00;;;4.27;;
3733;SDS011;1882;52.256;8.874;2023-04-19T04:09:21;7.93;;;4.30;;
3733;SDS011;1882;52.256;8.874;2023-04-19T04:11:48;9.43;;;4.50;;
3733;SDS011;1882;52.256;8.874;2023-04-19T04:14:18;6.00;;;3.90;;
3733;SDS011;1882;52.256;8.874;2023-04-19T04:16:49;5.37;;;3.60;;
3733;SDS011;1882;52.256;8.874;2023-04-19T04:19:16;7.50;;;3.90;;
3733;SDS011;1882;52.256;8.874;2023-04-19T04:21:43;5.70;;;3.50;;
3733;SDS011;1882;52.256;8.874;2023-04-19T04:24:24;4.97;;;3.60;;
3733;SDS011;1882;52.256;8.874;2023-04-19T04:27:10;6.63;;;3.43;;
3733;SDS011;1882;52.256;8.874;2023-04-19T04:29:39;7.03;;;3.77;;
3733;SDS011;1882;52.256;8.874;2023-04-19T04:32:07;5.33;;;3.60;;
3733;SDS011;1882;52.256;8.874;2023-04-19T04:34:38;6.87;;;3.40;;
3733;SDS011;1882;52.256;8.874;2023-04-19T04:37:09;4.67;;;3.20;;
3733;SDS011;1882;52.256;8.874;2023-04-19T04:39:38;9.27;;;3.53;;
3733;SDS011;1882;52.256;8.874;2023-04-19T04:42:07;9.23;;;3.40;;
3733;SDS011;1882;52.256;8.874;2023-04-19T04:44:35;5.43;;;3.73;;
3733;SDS011;1882;52.256;8.874;2023-04-19T04:47:05;6.10;;;3.50;;
3733;SDS011;1882;52.256;8.874;2023-04-19T04:49:40;9.90;;;4.03;;
3733;SDS011;1882;52.256;8.874;2023-04-19T04:52:07;4.93;;;2.90;;
3733;SDS011;1882;52.256;8.874;2023-04-19T04:54:42;5.93;;;3.60;;
3733;SDS011;1882;52.256;8.874;2023-04-19T04:57:18;8.57;;;3.80;;
3733;SDS011;1882;52.256;8.874;2023-04-19T05:00:11;7.43;;;3.47;;
3733;SDS011;1882;52.256;8.874;2023-04-19T05:02:48;8.00;;;4.10;;
3733;SDS011;1882;52.256;8.874;2023-04-19T05:05:15;7.50;;;3.30;;
3733;SDS011;1882;52.256;8.874;2023-04-19T05:07:42;5.87;;;3.30;;
3733;SDS011;1882;52.256;8.874;2023-04-19T05:10:12;7.43;;;3.50;;
3733;SDS011;1882;52.256;8.874;2023-04-19T05:12:43;5.67;;;3.40;;
3733;SDS011;1882;52.256;8.874;2023-04-19T05:15:10;12.53;;;3.90;;
3733;SDS011;1882;52.256;8.874;2023-04-19T05:17:41;7.77;;;3.37;;
3733;SDS011;1882;52.256;8.874;2023-04-19T05:20:09;6.60;;;3.73;;
3733;SDS011;1882;52.256;8.874;2023-04-19T05:22:38;8.70;;;3.50;;
3733;SDS011;1882;52.256;8.874;2023-04-19T05:25:09;6.00;;;3.17;;
3733;SDS011;1882;52.256;8.874;2023-04-19T05:27:38;6.63;;;3.23;;
3733;SDS011;1882;52.256;8.874;2023-04-19T05:30:05;3.73;;;3.33;;
3733;SDS011;1882;52.256;8.874;2023-04-19T05:32:41;5.33;;;3.40;;
3733;SDS011;1882;52.256;8.874;2023-04-19T05:35:10;4.50;;;3.30;;
3733;SDS011;1882;52.256;8.874;2023-04-19T05:37:39;4.03;;;2.90;;
3733;SDS011;1882;52.256;8.874;2023-04-19T05:40:09;4.40;;;3.30;;
3733;SDS011;1882;52.256;8.874;2023-04-19T05:42:36;7.20;;;3.37;;
3733;SDS011;1882;52.256;8.874;2023-04-19T05:45:04;5.60;;;3.20;;
3733;SDS011;1882;52.256;8.874;2023-04-19T05:47:32;4.70;;;3.03;;
3733;SDS011;1882;52.256;8.874;2023-04-19T05:50:22;4.43;;;3.23;;
3733;SDS011;1882;52.256;8.874;2023-04-19T05:53:18;6.40;;;3.17;;
3733;SDS011;1882;52.256;8.874;2023-04-19T05:55:55;4.90;;;3.10;;
3733;SDS011;1882;52.256;8.874;2023-04-19T05:58:22;7.20;;;3.50;;
3733;SDS011;1882;52.256;8.874;2023-04-19T06:00:50;4.57;;;3.27;;
3733;SDS011;1882;52.256;8.874;2023-04-19T06:03:24;5.07;;;3.40;;
3733;SDS011;1882;52.256;8.874;2023-04-19T06:05:56;7.40;;;3.40;;
3733;SDS011;1882;52.256;8.874;2023-04-19T06:08:27;8.43;;;3.20;;
3733;SDS011;1882;52.256;8.874;2023-04-19T06:10:54;6.00;;;3.60;;
3733;SDS011;1882;52.256;8.874;2023-04-19T06:13:30;4.27;;;3.20;;
3733;SDS011;1882;52.256;8.874;2023-04-19T06:16:00;7.87;;;3.40;;
3733;SDS011;1882;52.256;8.874;2023-04-19T06:18:26;6.10;;;3.17;;
3733;SDS011;1882;52.256;8.874;2023-04-19T06:20:53;6.13;;;3.30;;
3733;SDS011;1882;52.256;8.874;2023-04-19T06:23:20;7.80;;;3.13;;
3733;SDS011;1882;52.256;8.874;2023-04-19T06:25:51;5.03;;;3.30;;
3733;SDS011;1882;52.256;8.874;2023-04-19T06:28:26;7.40;;;3.40;;
3733;SDS011;1882;52.256;8.874;2023-04-19T06:30:52;6.00;;;2.90;;
3733;SDS011;1882;52.256;8.874;2023-04-19T06:33:21;9.77;;;3.50;;
3733;SDS011;1882;52.256;8.874;2023-04-19T06:35:56;4.80;;;3.10;;
3733;SDS011;1882;52.256;8.874;2023-04-19T06:38:22;4.83;;;3.10;;
3733;SDS011;1882;52.256;8.874;2023-04-19T06:40:49;4.90;;;3.80;;
3733;SDS011;1882;52.256;8.874;2023-04-19T06:43:18;5.13;;;3.00;;
3733;SDS011;1882;52.256;8.874;2023-04-19T06:45:47;9.80;;;3.93;;
3733;SDS011;1882;52.256;8.874;2023-04-19T06:48:33;8.60;;;3.73;;
3733;SDS011;1882;52.256;8.874;2023-04-19T06:51:00;5.83;;;3.03;;
3733;SDS011;1882;52.256;8.874;2023-04-19T06:53:27;6.97;;;3.10;;
3733;SDS011;1882;52.256;8.874;2023-04-19T06:56:01;5.37;;;2.97;;
3733;SDS011;1882;52.256;8.874;2023-04-19T06:58:31;4.37;;;3.40;;
3733;SDS011;1882;52.256;8.874;2023-04-19T07:01:00;7.00;;;3.60;;
3733;SDS011;1882;52.256;8.874;2023-04-19T07:03:30;4.90;;;3.40;;
3733;SDS011;1882;52.256;8.874;2023-04-19T07:05:58;4.90;;;3.60;;
3733;SDS011;1882;52.256;8.874;2023-04-19T07:08:25;5.47;;;3.40;;
3733;SDS011;1882;52.256;8.874;2023-04-19T07:11:08;8.07;;;3.40;;
3733;SDS011;1882;52.256;8.874;2023-04-19T07:13:34;14.60;;;3.93;;
3733;SDS011;1882;52.256;8.874;2023-04-19T07:16:03;5.17;;;3.60;;
3733;SDS011;1882;52.256;8.874;2023-04-19T07:18:32;6.10;;;3.70;;
3733;SDS011;1882;52.256;8.874;2023-04-19T07:20:59;7.17;;;3.90;;
3733;SDS011;1882;52.256;8.874;2023-04-19T07:23:26;9.60;;;3.73;;
3733;SDS011;1882;52.256;8.874;2023-04-19T07:28:47;9.13;;;3.87;;
3733;SDS011;1882;52.256;8.874;2023-04-19T07:31:15;4.60;;;3.10;;
3733;SDS011;1882;52.256;8.874;2023-04-19T07:33:42;8.10;;;3.80;;
3733;SDS011;1882;52.256;8.874;2023-04-19T07:36:09;4.57;;;3.40;;
3733;SDS011;1882;52.256;8.874;2023-04-19T07:38:36;6.63;;;3.60;;
3733;SDS011;1882;52.256;8.874;2023-04-19T07:41:03;7.37;;;3.63;;
3733;SDS011;1882;52.256;8.874;2023-04-19T07:43:30;5.17;;;3.40;;
3733;SDS011;1882;52.256;8.874;2023-04-19T07:45:57;6.83;;;3.40;;
3733;SDS011;1882;52.256;8.874;2023-04-19T07:48:24;5.23;;;3.30;;
3733;SDS011;1882;52.256;8.874;2023-04-19T07:50:51;4.60;;;3.20;;
3733;SDS011;1882;52.256;8.874;2023-04-19T07:53:17;5.10;;;3.50;;
3733;SDS011;1882;52.256;8.874;2023-04-19T07:55:44;5.70;;;3.43;;
3733;SDS011;1882;52.256;8.874;2023-04-19T07:58:11;3.87;;;3.10;;
3733;SDS011;1882;52.256;8.874;2023-04-19T08:00:37;4.47;;;2.90;;
3733;SDS011;1882;52.256;8.874;2023-04-19T08:03:04;6.80;;;3.60;;
3733;SDS011;1882;52.256;8.874;2023-04-19T08:05:31;5.90;;;3.60;;
3733;SDS011;1882;52.256;8.874;2023-04-19T08:07:58;7.57;;;3.07;;
3733;SDS011;1882;52.256;8.874;2023-04-19T08:10:25;3.93;;;3.20;;
3733;SDS011;1882;52.256;8.874;2023-04-19T08:12:54;5.00;;;3.47;;
3733;SDS011;1882;52.256;8.874;2023-04-19T08:15:32;4.70;;;3.13;;
3733;SDS011;1882;52.256;8.874;2023-04-19T08:18:02;4.63;;;3.50;;
3733;SDS011;1882;52.256;8.874;2023-04-19T08:20:30;5.67;;;3.23;;
3733;SDS011;1882;52.256;8.874;2023-04-19T08:22:58;3.97;;;3.30;;
3733;SDS011;1882;52.256;8.874;2023-04-19T08:25:36;4.10;;;3.03;;
3733;SDS011;1882;52.256;8.874;2023-04-19T08:28:03;8.27;;;3.30;;
3733;SDS011;1882;52.256;8.874;2023-04-19T08:30:30;6.77;;;3.53;;
3733;SDS011;1882;52.256;8.874;2023-04-19T08:32:57;4.87;;;3.27;;
3733;SDS011;1882;52.256;8.874;2023-04-19T08:35:24;8.37;;;3.67;;
3733;SDS011;1882;52.256;8.874;2023-04-19T08:37:50;3.90;;;2.60;;
3733;SDS011;1882;52.256;8.874;2023-04-19T08:40:17;4.97;;;2.87;;
3733;SDS011;1882;52.256;8.874;2023-04-19T08:42:44;3.03;;;2.70;;
3733;SDS011;1882;52.256;8.874;2023-04-19T08:45:11;3.07;;;2.77;;
3733;SDS011;1882;52.256;8.874;2023-04-19T08:47:53;4.53;;;2.70;;
3733;SDS011;1882;52.256;8.874;2023-04-19T08:50:27;3.90;;;3.20;;
3733;SDS011;1882;52.256;8.874;2023-04-19T08:53:01;4.00;;;2.70;;
3733;SDS011;1882;52.256;8.874;2023-04-19T08:55:48;2.83;;;2.50;;
3733;SDS011;1882;52.256;8.874;2023-04-19T08:58:35;3.50;;;2.70;;
3733;SDS011;1882;52.256;8.874;2023-04-19T09:01:22;6.03;;;3.00;;
3733;SDS011;1882;52.256;8.874;2023-04-19T09:04:02;3.73;;;2.80;;
3733;SDS011;1882;52.256;8.874;2023-04-19T09:06:53;3.53;;;2.83;;
3733;SDS011;1882;52.256;8.874;2023-04-19T09:11:50;4.67;;;2.40;;
3733;SDS011;1882;52.256;8.874;2023-04-19T09:14:17;2.70;;;2.40;;
3733;SDS011;1882;52.256;8.874;2023-04-19T09:16:45;3.00;;;2.60;;
3733;SDS011;1882;52.256;8.874;2023-04-19T09:19:12;5.23;;;2.87;;
3733;SDS011;1882;52.256;8.874;2023-04-19T09:21:49;5.37;;;2.90;;
3733;SDS011;1882;52.256;8.874;2023-04-19T09:24:18;3.43;;;2.50;;
3733;SDS011;1882;52.256;8.874;2023-04-19T09:26:54;5.20;;;2.60;;
3733;SDS011;1882;52.256;8.874;2023-04-19T09:29:23;5.83;;;2.40;;
3733;SDS011;1882;52.256;8.874;2023-04-19T09:31:57;3.67;;;2.53;;
3733;SDS011;1882;52.256;8.874;2023-04-19T09:34:24;7.73;;;2.60;;
3733;SDS011;1882;52.256;8.874;2023-04-19T09:36:53;3.90;;;2.80;;
3733;SDS011;1882;52.256;8.874;2023-04-19T09:39:37;8.03;;;3.50;;
3733;SDS011;1882;52.256;8.874;2023-04-19T09:42:03;3.00;;;2.60;;
3733;SDS011;1882;52.256;8.874;2023-04-19T09:44:30;4.30;;;3.30;;
3733;SDS011;1882;52.256;8.874;2023-04-19T09:47:22;6.17;;;2.50;;
3733;SDS011;1882;52.256;8.874;2023-04-19T09:50:06;4.87;;;2.90;;
3733;SDS011;1882;52.256;8.874;2023-04-19T09:52:48;4.13;;;2.60;;
3733;SDS011;1882;52.256;8.874;2023-04-19T09:55:15;4.50;;;2.40;;
3733;SDS011;1882;52.256;8.874;2023-04-19T09:57:53;6.60;;;2.60;;
3733;SDS011;1882;52.256;8.874;2023-04-19T10:00:21;4.43;;;2.80;;
3733;SDS011;1882;52.256;8.874;2023-04-19T10:02:51;5.67;;;2.90;;
3733;SDS011;1882;52.256;8.874;2023-04-19T10:05:23;8.80;;;2.60;;
3733;SDS011;1882;52.256;8.874;2023-04-19T10:07:52;3.63;;;2.47;;
3733;SDS011;1882;52.256;8.874;2023-04-19T10:10:25;4.60;;;2.47;;
3733;SDS011;1882;52.256;8.874;2023-04-19T10:13:10;3.63;;;2.20;;
3733;SDS011;1882;52.256;8.874;2023-04-19T10:15:47;2.97;;;2.33;;
3733;SDS011;1882;52.256;8.874;2023-04-19T10:18:22;9.63;;;2.70;;
3733;SDS011;1882;52.256;8.874;2023-04-19T10:23:26;3.57;;;2.57;;
3733;SDS011;1882;52.256;8.874;2023-04-19T10:25:57;5.67;;;2.47;;
3733;SDS011;1882;52.256;8.874;2023-04-19T10:28:28;6.43;;;2.77;;
3733;SDS011;1882;52.256;8.874;2023-04-19T10:31:00;3.53;;;2.53;;
3733;SDS011;1882;52.256;8.874;2023-04-19T10:33:37;6.27;;;2.50;;
3733;SDS011;1882;52.256;8.874;2023-04-19T10:36:07;4.00;;;2.83;;
3733;SDS011;1882;52.256;8.874;2023-04-19T10:41:10;3.73;;;2.47;;
3733;SDS011;1882;52.256;8.874;2023-04-19T10:49:20;5.07;;;2.63;;
3733;SDS011;1882;52.256;8.874;2023-04-19T10:51:39;4.60;;;2.80;;
3733;SDS011;1882;52.256;8.874;2023-04-19T10:54:29;4.03;;;2.63;;
3733;SDS011;1882;52.256;8.874;2023-04-19T10:57:02;7.97;;;3.80;;
3733;SDS011;1882;52.256;8.874;2023-04-19T10:59:32;20.47;;;6.20;;
3733;SDS011;1882;52.256;8.874;2023-04-19T11:02:01;6.13;;;3.07;;
3733;SDS011;1882;52.256;8.874;2023-04-19T11:07:03;5.93;;;2.90;;
3733;SDS011;1882;52.256;8.874;2023-04-19T11:09:34;8.47;;;3.37;;
3733;SDS011;1882;52.256;8.874;2023-04-19T11:12:16;5.50;;;2.77;;
3733;SDS011;1882;52.256;8.874;2023-04-19T11:14:45;5.00;;;2.50;;
3733;SDS011;1882;52.256;8.874;2023-04-19T11:17:16;4.23;;;2.80;;
3733;SDS011;1882;52.256;8.874;2023-04-19T11:19:57;6.00;;;3.10;;
3733;SDS011;1882;52.256;8.874;2023-04-19T11:22:28;5.70;;;2.77;;
3733;SDS011;1882;52.256;8.874;2023-04-19T11:24:56;7.83;;;3.33;;
3733;SDS011;1882;52.256;8.874;2023-04-19T11:27:29;5.70;;;3.63;;
3733;SDS011;1882;52.256;8.874;2023-04-19T11:30:16;10.13;;;3.57;;
3733;SDS011;1882;52.256;8.874;2023-04-19T11:32:46;4.27;;;2.80;;
3733;SDS011;1882;52.256;8.874;2023-04-19T11:35:18;7.10;;;3.10;;
3733;SDS011;1882;52.256;8.874;2023-04-19T11:37:45;6.67;;;2.53;;
3733;SDS011;1882;52.256;8.874;2023-04-19T11:40:19;3.70;;;2.40;;
3733;SDS011;1882;52.256;8.874;2023-04-19T11:42:52;5.90;;;2.47;;
3733;SDS011;1882;52.256;8.874;2023-04-19T11:45:27;7.27;;;2.93;;
3733;SDS011;1882;52.256;8.874;2023-04-19T11:48:06;6.27;;;2.57;;
3733;SDS011;1882;52.256;8.874;2023-04-19T11:50:37;3.93;;;2.60;;
3733;SDS011;1882;52.256;8.874;2023-04-19T11:55:43;2.80;;;2.37;;
3733;SDS011;1882;52.256;8.874;2023-04-19T11:58:24;4.13;;;2.30;;
3733;SDS011;1882;52.256;8.874;2023-04-19T12:00:51;3.27;;;2.47;;
3733;SDS011;1882;52.256;8.874;2023-04-19T12:03:22;4.93;;;2.40;;
3733;SDS011;1882;52.256;8.874;2023-04-19T12:05:53;6.07;;;3.10;;
3733;SDS011;1882;52.256;8.874;2023-04-19T12:08:30;3.40;;;2.40;;
3733;SDS011;1882;52.256;8.874;2023-04-19T12:10:58;3.67;;;2.30;;
3733;SDS011;1882;52.256;8.874;2023-04-19T12:13:25;3.10;;;2.50;;
3733;SDS011;1882;52.256;8.874;2023-04-19T12:15:52;6.40;;;2.33;;
3733;SDS011;1882;52.256;8.874;2023-04-19T12:18:19;3.57;;;2.23;;
3733;SDS011;1882;52.256;8.874;2023-04-19T12:20:48;3.60;;;1.93;;
3733;SDS011;1882;52.256;8.874;2023-04-19T12:23:20;5.80;;;2.33;;
3733;SDS011;1882;52.256;8.874;2023-04-19T12:25:47;3.13;;;2.60;;
3733;SDS011;1882;52.256;8.874;2023-04-19T12:28:15;3.10;;;2.17;;
3733;SDS011;1882;52.256;8.874;2023-04-19T12:30:42;4.67;;;2.53;;
3733;SDS011;1882;52.256;8.874;2023-04-19T12:33:09;3.57;;;2.37;;
3733;SDS011;1882;52.256;8.874;2023-04-19T12:35:36;11.07;;;3.40;;
3733;SDS011;1882;52.256;8.874;2023-04-19T12:38:06;4.90;;;2.53;;
3733;SDS011;1882;52.256;8.874;2023-04-19T12:40:34;3.20;;;2.53;;
3733;SDS011;1882;52.256;8.874;2023-04-19T12:43:00;5.00;;;2.20;;
3733;SDS011;1882;52.256;8.874;2023-04-19T12:45:30;3.30;;;2.60;;
3733;SDS011;1882;52.256;8.874;2023-04-19T12:47:59;3.57;;;2.60;;
3733;SDS011;1882;52.256;8.874;2023-04-19T12:50:25;3.63;;;2.60;;
3733;SDS011;1882;52.256;8.874;2023-04-19T12:52:55;8.73;;;2.60;;
3733;SDS011;1882;52.256;8.874;2023-04-19T12:55:24;3.47;;;2.30;;
3733;SDS011;1882;52.256;8.874;2023-04-19T12:57:50;5.53;;;2.60;;
3733;SDS011;1882;52.256;8.874;2023-04-19T13:00:17;3.30;;;2.40;;
3733;SDS011;1882;52.256;8.874;2023-04-19T13:02:44;2.63;;;2.20;;
3733;SDS011;1882;52.256;8.874;2023-04-19T13:05:13;5.47;;;2.57;;
3733;SDS011;1882;52.256;8.874;2023-04-19T13:07:40;3.30;;;2.70;;
3733;SDS011;1882;52.256;8.874;2023-04-19T13:10:07;3.97;;;2.67;;
3733;SDS011;1882;52.256;8.874;2023-04-19T13:12:34;4.67;;;2.57;;
3733;SDS011;1882;52.256;8.874;2023-04-19T13:15:01;4.70;;;2.80;;
3733;SDS011;1882;52.256;8.874;2023-04-19T13:17:30;4.23;;;2.40;;
3733;SDS011;1882;52.256;8.874;2023-04-19T13:19:58;3.87;;;2.60;;
3733;SDS011;1882;52.256;8.874;2023-04-19T13:22:25;5.87;;;2.97;;
3733;SDS011;1882;52.256;8.874;2023-04-19T13:24:52;5.23;;;2.60;;
3733;SDS011;1882;52.256;8.874;2023-04-19T13:27:19;7.23;;;2.70;;
3733;SDS011;1882;52.256;8.874;2023-04-19T13:33:05;5.70;;;2.47;;
3733;SDS011;1882;52.256;8.874;2023-04-19T13:35:34;2.80;;;2.50;;
3733;SDS011;1882;52.256;8.874;2023-04-19T13:38:01;10.13;;;2.60;;
3733;SDS011;1882;52.256;8.874;2023-04-19T13:40:30;8.93;;;2.73;;
3733;SDS011;1882;52.256;8.874;2023-04-19T13:42:57;3.90;;;2.60;;
3733;SDS011;1882;52.256;8.874;2023-04-19T13:45:23;5.83;;;3.10;;
3733;SDS011;1882;52.256;8.874;2023-04-19T13:47:50;5.30;;;3.10;;
3733;SDS011;1882;52.256;8.874;2023-04-19T13:50:17;3.20;;;2.87;;
3733;SDS011;1882;52.256;8.874;2023-04-19T13:52:44;5.13;;;3.17;;
3733;SDS011;1882;52.256;8.874;2023-04-19T13:55:10;4.60;;;2.67;;
3733;SDS011;1882;52.256;8.874;2023-04-19T13:57:37;4.30;;;3.10;;
3733;SDS011;1882;52.256;8.874;2023-04-19T14:00:04;5.60;;;3.20;;
3733;SDS011;1882;52.256;8.874;2023-04-19T14:02:32;6.60;;;3.23;;
3733;SDS011;1882;52.256;8.874;2023-04-19T14:04:59;4.50;;;3.43;;
3733;SDS011;1882;52.256;8.874;2023-04-19T14:07:26;7.33;;;3.40;;
3733;SDS011;1882;52.256;8.874;2023-04-19T14:09:52;4.33;;;3.40;;
3733;SDS011;1882;52.256;8.874;2023-04-19T14:12:19;4.67;;;2.70;;
3733;SDS011;1882;52.256;8.874;2023-04-19T14:14:46;9.33;;;3.50;;
3733;SDS011;1882;52.256;8.874;2023-04-19T14:17:12;4.47;;;2.97;;
3733;SDS011;1882;52.256;8.874;2023-04-19T14:19:39;6.17;;;3.20;;
3733;SDS011;1882;52.256;8.874;2023-04-19T14:22:06;4.97;;;3.57;;
3733;SDS011;1882;52.256;8.874;2023-04-19T14:24:32;6.47;;;3.37;;
3733;SDS011;1882;52.256;8.874;2023-04-19T14:27:05;4.60;;;3.10;;
3733;SDS011;1882;52.256;8.874;2023-04-19T14:29:36;6.20;;;3.53;;
3733;SDS011;1882;52.256;8.874;2023-04-19T14:32:03;4.17;;;3.73;;
3733;SDS011;1882;52.256;8.874;2023-04-19T14:34:50;5.97;;;3.43;;
3733;SDS011;1882;52.256;8.874;2023-04-19T14:37:17;4.77;;;3.03;;
3733;SDS011;1882;52.256;8.874;2023-04-19T14:39:44;7.17;;;3.53;;
3733;SDS011;1882;52.256;8.874;2023-04-19T14:42:11;4.40;;;3.60;;
3733;SDS011;1882;52.256;8.874;2023-04-19T14:44:38;5.67;;;3.80;;
3733;SDS011;1882;52.256;8.874;2023-04-19T14:47:05;6.70;;;4.00;;
3733;SDS011;1882;52.256;8.874;2023-04-19T14:49:32;7.53;;;3.67;;
3733;SDS011;1882;52.256;8.874;2023-04-19T14:51:59;5.80;;;3.80;;
3733;SDS011;1882;52.256;8.874;2023-04-19T14:54:26;9.93;;;4.30;;
3733;SDS011;1882;52.256;8.874;2023-04-19T14:56:53;4.63;;;3.87;;
3733;SDS011;1882;52.256;8.874;2023-04-19T14:59:19;7.00;;;3.87;;
3733;SDS011;1882;52.256;8.874;2023-04-19T15:01:46;5.90;;;3.70;;
3733;SDS011;1882;52.256;8.874;2023-04-19T15:04:13;9.33;;;3.77;;
3733;SDS011;1882;52.256;8.874;2023-04-19T15:06:40;8.47;;;3.97;;
3733;SDS011;1882;52.256;8.874;2023-04-19T15:09:07;8.40;;;3.80;;
3733;SDS011;1882;52.256;8.874;2023-04-19T15:11:35;8.70;;;4.00;;
3733;SDS011;1882;52.256;8.874;2023-04-19T15:14:01;4.97;;;4.07;;
3733;SDS011;1882;52.256;8.874;2023-04-19T15:16:28;7.50;;;4.00;;
3733;SDS011;1882;52.256;8.874;2023-04-19T15:18:58;6.03;;;4.00;;
3733;SDS011;1882;52.256;8.874;2023-04-19T15:21:24;5.67;;;3.70;;
3733;SDS011;1882;52.256;8.874;2023-04-19T15:23:51;3.57;;;3.23;;
3733;SDS011;1882;52.256;8.874;2023-04-19T15:26:18;5.57;;;3.80;;
3733;SDS011;1882;52.256;8.874;2023-04-19T15:28:47;9.07;;;3.70;;
3733;SDS011;1882;52.256;8.874;2023-04-19T15:31:13;4.13;;;3.30;;
3733;SDS011;1882;52.256;8.874;2023-04-19T15:33:41;5.27;;;3.20;;
3733;SDS011;1882;52.256;8.874;2023-04-19T15:36:08;6.20;;;4.30;;
3733;SDS011;1882;52.256;8.874;2023-04-19T15:38:35;10.50;;;4.43;;
3733;SDS011;1882;52.256;8.874;2023-04-19T15:41:01;6.60;;;3.63;;
3733;SDS011;1882;52.256;8.874;2023-04-19T15:43:28;4.80;;;3.83;;
3733;SDS011;1882;52.256;8.874;2023-04-19T15:45:55;6.63;;;3.80;;
3733;SDS011;1882;52.256;8.874;2023-04-19T15:48:22;5.87;;;3.80;;
3733;SDS011;1882;52.256;8.874;2023-04-19T15:50:48;6.30;;;3.67;;
3733;SDS011;1882;52.256;8.874;2023-04-19T15:53:16;6.77;;;3.60;;
3733;SDS011;1882;52.256;8.874;2023-04-19T15:55:42;10.10;;;3.60;;
3733;SDS011;1882;52.256;8.874;2023-04-19T15:58:12;5.10;;;3.67;;
3733;SDS011;1882;52.256;8.874;2023-04-19T16:00:39;4.57;;;3.40;;
3733;SDS011;1882;52.256;8.874;2023-04-19T16:03:07;4.27;;;3.40;;